Buoy 43533

sailwx.info

Track history (hours):
 
Tides and Currents Weather Stations Pressure Air Temp Water Temp Dewpoint Dewpoint Depression Visibility Wind Speed Wind Dir Waves Ship Positions

Drifting buoy 43533

Last reported at 2014-Jul-23 04:00 UTC. Time now 2014-Jul-23 05:14 UTC.
Position N 13°23' W 104°12'.

Length 24 m.

Type: Fishing. MMSI: 412466549.

Water temperature 29.7 ° C

Date/timePositionNaut miles runAvg speedWind from/ knotsBaromVisibWave heightAir tempDewpointWater temp
2014-Jul-23 04:00N 13°23' W 104°12'1 0.8 29.7
2014-Jul-23 03:00N 13°23' W 104°13'1 0.5 29.7
2014-Jul-23 00:00N 13°24' W 104°14'1 0.3 29.7
2014-Jul-22 21:00N 13°24' W 104°15'0 0.4 29.7
2014-Jul-22 20:00N 13°25' W 104°15'0 0.0 29.6
2014-Jul-22 17:00N 13°25' W 104°15'0 0.2 29.5
2014-Jul-22 16:00N 13°25' W 104°15'0 0.0 29.5
2014-Jul-22 15:00N 13°25' W 104°15'0 0.1 29.5
2014-Jul-22 13:00N 13°25' W 104°15'3 1.3 29.7
2014-Jul-22 11:00N 13°25' W 104°12'0 0.0 29.7
2014-Jul-22 10:00N 13°25' W 104°12'0 0.0 29.7
2014-Jul-22 09:00N 13°25' W 104°12'2 0.5 29.7
2014-Jul-22 05:00N 13°26' W 104°13'0 0.5 29.7
2014-Jul-22 04:00N 13°27' W 104°12'2 1.9 29.8
2014-Jul-22 03:00N 13°29' W 104°12'1 0.3 29.8
2014-Jul-21 23:00N 13°29' W 104°12'2 0.7 29.9
2014-Jul-21 20:00N 13°32' W 104°11'0 0.1 29.9
2014-Jul-21 17:00N 13°32' W 104°11'1 0.6 29.8
2014-Jul-21 16:00N 13°32' W 104°11'0 0.1 29.8
2014-Jul-21 15:00N 13°32' W 104°11'1 0.3 29.7
2014-Jul-21 12:00N 13°33' W 104°12'0 0.3 29.8
2014-Jul-21 11:00N 13°33' W 104°11'0 0.0 29.8
2014-Jul-21 10:00N 13°33' W 104°11'1 0.8 29.8
2014-Jul-21 09:00N 13°34' W 104°11'1 0.1 29.8
2014-Jul-21 03:00N 13°35' W 104°12'0 0.0 29.8
2014-Jul-21 01:00N 13°35' W 104°12'0 0.1 29.9
2014-Jul-21 00:00N 13°35' W 104°12'1 0.6 29.9
2014-Jul-20 23:00N 13°35' W 104°11'0 0.0 29.9
2014-Jul-20 22:00N 13°35' W 104°11'1 0.1 29.9
2014-Jul-20 17:00N 13°35' W 104°11'0 0.4 29.8
2014-Jul-20 16:00N 13°35' W 104°10'0 0.5 29.7
2014-Jul-20 15:00N 13°35' W 104°11'0 0.1 29.7
2014-Jul-20 13:00N 13°35' W 104°10'0 0.0 29.7
2014-Jul-20 12:00N 13°35' W 104°10'1 0.5 29.7
2014-Jul-20 09:00N 13°35' W 104°09'0 0.0 29.7
2014-Jul-20 07:00N 13°35' W 104°09'0 0.0 29.7
2014-Jul-20 05:00N 13°35' W 104°09'1 0.5 29.8
2014-Jul-20 04:00N 13°35' W 104°08'1 0.9 29.8
2014-Jul-20 03:00N 13°36' W 104°09'1 0.2 29.9
2014-Jul-20 00:00N 13°37' W 104°08'0 0.1 30.0
2014-Jul-19 23:00N 13°37' W 104°08'1 0.4 30.0
2014-Jul-19 20:00N 13°38' W 104°08'0 0.0 29.9
2014-Jul-19 19:00N 13°38' W 104°08'2 0.9 29.9
2014-Jul-19 17:00N 13°39' W 104°07'0 0.0 29.9
2014-Jul-19 16:00N 13°39' W 104°07'0 0.0 29.7
2014-Jul-19 15:00N 13°39' W 104°07'1 0.2 29.7
2014-Jul-19 12:00N 13°40' W 104°07'1 0.6 29.8
2014-Jul-19 11:00N 13°41' W 104°07'0 0.3 29.8
2014-Jul-19 10:00N 13°41' W 104°06'1 0.7 29.8
2014-Jul-19 09:00N 13°41' W 104°07'1 0.3 29.8
2014-Jul-19 07:00N 13°42' W 104°07'1 0.3 29.9
2014-Jul-19 05:00N 13°42' W 104°07'0 0.1 29.9
2014-Jul-19 04:00N 13°42' W 104°07'1 0.6 29.9
2014-Jul-19 02:00N 13°42' W 104°08'1 0.6 30.0
2014-Jul-19 01:00N 13°43' W 104°07'0 0.3 30.1
2014-Jul-19 00:00N 13°43' W 104°07'0 0.1 30.1
2014-Jul-18 23:00N 13°43' W 104°07'0 0.2 30.2
2014-Jul-18 22:00N 13°43' W 104°07'0 0.3 30.2
2014-Jul-18 21:00N 13°43' W 104°07'1 0.3 30.2
2014-Jul-18 17:00N 13°43' W 104°08'0 0.0 29.8
2014-Jul-18 16:00N 13°43' W 104°08'0 0.1 29.7
2014-Jul-18 12:00N 13°43' W 104°08'0 0.1 29.7
2014-Jul-18 10:00N 13°43' W 104°08'0 0.5 29.7
2014-Jul-18 09:00N 13°43' W 104°07'1 0.8 29.7
2014-Jul-18 08:00N 13°43' W 104°06'0 0.1 29.8
2014-Jul-18 04:00N 13°42' W 104°06'1 0.3 29.8
2014-Jul-18 01:00N 13°43' W 104°05'0 0.2 29.9
2014-Jul-17 23:00N 13°43' W 104°05'0 0.0 30.1
2014-Jul-17 22:00N 13°43' W 104°05'1 0.7 30.1
2014-Jul-17 21:00N 13°43' W 104°05'1 0.3 30.2
2014-Jul-17 19:00N 13°44' W 104°04'1 0.4 30.2
2014-Jul-17 16:00N 13°45' W 104°03'0 0.0 29.7
2014-Jul-17 15:00N 13°45' W 104°03'2 0.5 29.6
2014-Jul-17 11:00N 13°46' W 104°03'1 0.8 29.7
2014-Jul-17 10:00N 13°47' W 104°03'1 0.4 29.7
2014-Jul-17 08:00N 13°48' W 104°03'1 0.2 29.8
2014-Jul-17 05:00N 13°48' W 104°03'0 0.0 29.8
2014-Jul-17 04:00N 13°48' W 104°03'1 0.8 29.8
2014-Jul-17 03:00N 13°49' W 104°04'1 0.2 29.9
2014-Jul-17 00:00N 13°49' W 104°04'0 0.0 30.1
2014-Jul-16 22:00N 13°49' W 104°04'0 0.3 30.1
2014-Jul-16 21:00N 13°49' W 104°05'0 0.2 30.1
2014-Jul-16 19:00N 13°49' W 104°05'0 0.1 30.0
2014-Jul-16 16:00N 13°49' W 104°05'0 0.2 29.6
2014-Jul-16 15:00N 13°49' W 104°05'0 0.2 29.6
2014-Jul-16 13:00N 13°49' W 104°05'1 0.3 29.6
2014-Jul-16 11:00N 13°49' W 104°05'1 0.6 29.6
2014-Jul-16 10:00N 13°49' W 104°06'1 0.2 29.6
2014-Jul-16 04:00N 13°48' W 104°06'1 0.7 29.6
2014-Jul-16 03:00N 13°48' W 104°06'0 0.0 29.6
2014-Jul-16 02:00N 13°48' W 104°06'2 0.8 29.6
2014-Jul-16 00:00N 13°46' W 104°05'0 0.2 29.6
2014-Jul-15 22:00N 13°46' W 104°05'0 0.0 29.7
2014-Jul-15 21:00N 13°46' W 104°05'1 0.3 29.7
2014-Jul-15 19:00N 13°46' W 104°05'0 0.1 29.7
2014-Jul-15 17:00N 13°46' W 104°05'0 0.2 29.7
2014-Jul-15 16:00N 13°46' W 104°05'1 0.2 29.7
2014-Jul-15 12:00N 13°45' W 104°04'1 0.8 29.8
2014-Jul-15 11:00N 13°46' W 104°04'0 0.0 29.8
2014-Jul-15 10:00N 13°46' W 104°04'1 0.5 29.8
2014-Jul-15 08:00N 13°47' W 104°05'0 0.0 29.8
2014-Jul-15 07:00N 13°47' W 104°05'0 0.1 29.8
2014-Jul-15 05:00N 13°47' W 104°05'0 0.2 29.9
2014-Jul-15 04:00N 13°47' W 104°05'0 0.3 29.9
2014-Jul-15 03:00N 13°47' W 104°05'1 0.4 30.0
2014-Jul-15 01:00N 13°47' W 104°05'1 0.6 30.1
2014-Jul-15 00:00N 13°47' W 104°06'0 0.0 30.1
2014-Jul-14 23:00N 13°47' W 104°06'0 0.3 30.2
2014-Jul-14 22:00N 13°47' W 104°06'0 0.0 30.2
2014-Jul-14 21:00N 13°47' W 104°06'2 0.4 30.2
2014-Jul-14 17:00N 13°48' W 104°07'0 0.4 29.9
2014-Jul-14 16:00N 13°48' W 104°08'1 0.7 29.8
2014-Jul-14 15:00N 13°48' W 104°07'1 0.3 29.7
2014-Jul-14 12:00N 13°48' W 104°08'1 0.5 29.7
2014-Jul-14 11:00N 13°48' W 104°08'0 0.0 29.8
2014-Jul-14 10:00N 13°48' W 104°08'1 0.5 29.8
2014-Jul-14 08:00N 13°47' W 104°09'0 0.1 29.8
2014-Jul-14 05:00N 13°48' W 104°09'0 0.4 29.8
2014-Jul-14 04:00N 13°48' W 104°09'0 0.0 29.9
2014-Jul-14 03:00N 13°48' W 104°09'2 0.4 29.9
2014-Jul-13 22:00N 13°46' W 104°09'0 0.4 30.3
2014-Jul-13 21:00N 13°46' W 104°09'0 0.1 30.3
2014-Jul-13 20:00N 13°46' W 104°10'1 0.5 30.3
2014-Jul-13 17:00N 13°46' W 104°08'2 2.0 29.7
2014-Jul-13 16:00N 13°46' W 104°10'0 0.0 29.7
2014-Jul-13 15:00N 13°46' W 104°10'1 0.4 29.6
2014-Jul-13 13:00N 13°46' W 104°10'2 0.5 29.6
2014-Jul-13 10:00N 13°46' W 104°11'0 0.0 29.7
2014-Jul-13 09:00N 13°46' W 104°11'0 0.0 29.7
2014-Jul-13 08:00N 13°46' W 104°11'0 0.1 29.7
2014-Jul-13 05:00N 13°46' W 104°11'0 0.2 29.7
2014-Jul-13 04:00N 13°46' W 104°11'   29.8
Track history (hours):
 
Tides and Currents Weather Stations Pressure Air Temp Water Temp Dewpoint Dewpoint Depression Visibility Wind Speed Wind Dir Waves Ship Positions

Drifting buoy 43533

Last reported at 2014-Jul-23 04:00 UTC. Time now 2014-Jul-23 05:14 UTC.
Position N 13°23' W 104°12'.

Length 24 m.

Type: Fishing. MMSI: 412466549.

Water temperature 29.7 ° C

Date/timePositionNaut miles runAvg speedWind from/ knotsBaromVisibWave heightAir tempDewpointWater temp
2014-Jul-23 04:00N 13°23' W 104°12'1 0.8 29.7
2014-Jul-23 03:00N 13°23' W 104°13'1 0.5 29.7
2014-Jul-23 00:00N 13°24' W 104°14'1 0.3 29.7
2014-Jul-22 21:00N 13°24' W 104°15'0 0.4 29.7
2014-Jul-22 20:00N 13°25' W 104°15'0 0.0 29.6
2014-Jul-22 17:00N 13°25' W 104°15'0 0.2 29.5
2014-Jul-22 16:00N 13°25' W 104°15'0 0.0 29.5
2014-Jul-22 15:00N 13°25' W 104°15'0 0.1 29.5
2014-Jul-22 13:00N 13°25' W 104°15'3 1.3 29.7
2014-Jul-22 11:00N 13°25' W 104°12'0 0.0 29.7
2014-Jul-22 10:00N 13°25' W 104°12'0 0.0 29.7
2014-Jul-22 09:00N 13°25' W 104°12'2 0.5 29.7
2014-Jul-22 05:00N 13°26' W 104°13'0 0.5 29.7
2014-Jul-22 04:00N 13°27' W 104°12'2 1.9 29.8
2014-Jul-22 03:00N 13°29' W 104°12'1 0.3 29.8
2014-Jul-21 23:00N 13°29' W 104°12'2 0.7 29.9
2014-Jul-21 20:00N 13°32' W 104°11'0 0.1 29.9
2014-Jul-21 17:00N 13°32' W 104°11'1 0.6 29.8
2014-Jul-21 16:00N 13°32' W 104°11'0 0.1 29.8
2014-Jul-21 15:00N 13°32' W 104°11'1 0.3 29.7
2014-Jul-21 12:00N 13°33' W 104°12'0 0.3 29.8
2014-Jul-21 11:00N 13°33' W 104°11'0 0.0 29.8
2014-Jul-21 10:00N 13°33' W 104°11'1 0.8 29.8
2014-Jul-21 09:00N 13°34' W 104°11'1 0.1 29.8
2014-Jul-21 03:00N 13°35' W 104°12'0 0.0 29.8
2014-Jul-21 01:00N 13°35' W 104°12'0 0.1 29.9
2014-Jul-21 00:00N 13°35' W 104°12'1 0.6 29.9
2014-Jul-20 23:00N 13°35' W 104°11'0 0.0 29.9
2014-Jul-20 22:00N 13°35' W 104°11'1 0.1 29.9
2014-Jul-20 17:00N 13°35' W 104°11'0 0.4 29.8
2014-Jul-20 16:00N 13°35' W 104°10'0 0.5 29.7
2014-Jul-20 15:00N 13°35' W 104°11'0 0.1 29.7
2014-Jul-20 13:00N 13°35' W 104°10'0 0.0 29.7
2014-Jul-20 12:00N 13°35' W 104°10'1 0.5 29.7
2014-Jul-20 09:00N 13°35' W 104°09'0 0.0 29.7
2014-Jul-20 07:00N 13°35' W 104°09'0 0.0 29.7
2014-Jul-20 05:00N 13°35' W 104°09'1 0.5 29.8
2014-Jul-20 04:00N 13°35' W 104°08'1 0.9 29.8
2014-Jul-20 03:00N 13°36' W 104°09'1 0.2 29.9
2014-Jul-20 00:00N 13°37' W 104°08'0 0.1 30.0
2014-Jul-19 23:00N 13°37' W 104°08'1 0.4 30.0
2014-Jul-19 20:00N 13°38' W 104°08'0 0.0 29.9
2014-Jul-19 19:00N 13°38' W 104°08'2 0.9 29.9
2014-Jul-19 17:00N 13°39' W 104°07'0 0.0 29.9
2014-Jul-19 16:00N 13°39' W 104°07'0 0.0 29.7
2014-Jul-19 15:00N 13°39' W 104°07'1 0.2 29.7
2014-Jul-19 12:00N 13°40' W 104°07'1 0.6 29.8
2014-Jul-19 11:00N 13°41' W 104°07'0 0.3 29.8
2014-Jul-19 10:00N 13°41' W 104°06'1 0.7 29.8
2014-Jul-19 09:00N 13°41' W 104°07'1 0.3 29.8
2014-Jul-19 07:00N 13°42' W 104°07'1 0.3 29.9
2014-Jul-19 05:00N 13°42' W 104°07'0 0.1 29.9
2014-Jul-19 04:00N 13°42' W 104°07'1 0.6 29.9
2014-Jul-19 02:00N 13°42' W 104°08'1 0.6 30.0
2014-Jul-19 01:00N 13°43' W 104°07'0 0.3 30.1
2014-Jul-19 00:00N 13°43' W 104°07'0 0.1 30.1
2014-Jul-18 23:00N 13°43' W 104°07'0 0.2 30.2
2014-Jul-18 22:00N 13°43' W 104°07'0 0.3 30.2
2014-Jul-18 21:00N 13°43' W 104°07'1 0.3 30.2
2014-Jul-18 17:00N 13°43' W 104°08'0 0.0 29.8
2014-Jul-18 16:00N 13°43' W 104°08'0 0.1 29.7
2014-Jul-18 12:00N 13°43' W 104°08'0 0.1 29.7
2014-Jul-18 10:00N 13°43' W 104°08'0 0.5 29.7
2014-Jul-18 09:00N 13°43' W 104°07'1 0.8 29.7
2014-Jul-18 08:00N 13°43' W 104°06'0 0.1 29.8
2014-Jul-18 04:00N 13°42' W 104°06'1 0.3 29.8
2014-Jul-18 01:00N 13°43' W 104°05'0 0.2 29.9
2014-Jul-17 23:00N 13°43' W 104°05'0 0.0 30.1
2014-Jul-17 22:00N 13°43' W 104°05'1 0.7 30.1
2014-Jul-17 21:00N 13°43' W 104°05'1 0.3 30.2
2014-Jul-17 19:00N 13°44' W 104°04'1 0.4 30.2
2014-Jul-17 16:00N 13°45' W 104°03'0 0.0 29.7
2014-Jul-17 15:00N 13°45' W 104°03'2 0.5 29.6
2014-Jul-17 11:00N 13°46' W 104°03'1 0.8 29.7
2014-Jul-17 10:00N 13°47' W 104°03'1 0.4 29.7
2014-Jul-17 08:00N 13°48' W 104°03'1 0.2 29.8
2014-Jul-17 05:00N 13°48' W 104°03'0 0.0 29.8
2014-Jul-17 04:00N 13°48' W 104°03'1 0.8 29.8
2014-Jul-17 03:00N 13°49' W 104°04'1 0.2 29.9
2014-Jul-17 00:00N 13°49' W 104°04'0 0.0 30.1
2014-Jul-16 22:00N 13°49' W 104°04'0 0.3 30.1
2014-Jul-16 21:00N 13°49' W 104°05'0 0.2 30.1
2014-Jul-16 19:00N 13°49' W 104°05'0 0.1 30.0
2014-Jul-16 16:00N 13°49' W 104°05'0 0.2 29.6
2014-Jul-16 15:00N 13°49' W 104°05'0 0.2 29.6
2014-Jul-16 13:00N 13°49' W 104°05'1 0.3 29.6
2014-Jul-16 11:00N 13°49' W 104°05'1 0.6 29.6
2014-Jul-16 10:00N 13°49' W 104°06'1 0.2 29.6
2014-Jul-16 04:00N 13°48' W 104°06'1 0.7 29.6
2014-Jul-16 03:00N 13°48' W 104°06'0 0.0 29.6
2014-Jul-16 02:00N 13°48' W 104°06'2 0.8 29.6
2014-Jul-16 00:00N 13°46' W 104°05'0 0.2 29.6
2014-Jul-15 22:00N 13°46' W 104°05'0 0.0 29.7
2014-Jul-15 21:00N 13°46' W 104°05'1 0.3 29.7
2014-Jul-15 19:00N 13°46' W 104°05'0 0.1 29.7
2014-Jul-15 17:00N 13°46' W 104°05'0 0.2 29.7
2014-Jul-15 16:00N 13°46' W 104°05'1 0.2 29.7
2014-Jul-15 12:00N 13°45' W 104°04'1 0.8 29.8
2014-Jul-15 11:00N 13°46' W 104°04'0 0.0 29.8
2014-Jul-15 10:00N 13°46' W 104°04'1 0.5 29.8
2014-Jul-15 08:00N 13°47' W 104°05'0 0.0 29.8
2014-Jul-15 07:00N 13°47' W 104°05'0 0.1 29.8
2014-Jul-15 05:00N 13°47' W 104°05'0 0.2 29.9
2014-Jul-15 04:00N 13°47' W 104°05'0 0.3 29.9
2014-Jul-15 03:00N 13°47' W 104°05'1 0.4 30.0
2014-Jul-15 01:00N 13°47' W 104°05'1 0.6 30.1
2014-Jul-15 00:00N 13°47' W 104°06'0 0.0 30.1
2014-Jul-14 23:00N 13°47' W 104°06'0 0.3 30.2
2014-Jul-14 22:00N 13°47' W 104°06'0 0.0 30.2
2014-Jul-14 21:00N 13°47' W 104°06'2 0.4 30.2
2014-Jul-14 17:00N 13°48' W 104°07'0 0.4 29.9
2014-Jul-14 16:00N 13°48' W 104°08'1 0.7 29.8
2014-Jul-14 15:00N 13°48' W 104°07'1 0.3 29.7
2014-Jul-14 12:00N 13°48' W 104°08'1 0.5 29.7
2014-Jul-14 11:00N 13°48' W 104°08'0 0.0 29.8
2014-Jul-14 10:00N 13°48' W 104°08'1 0.5 29.8
2014-Jul-14 08:00N 13°47' W 104°09'0 0.1 29.8
2014-Jul-14 05:00N 13°48' W 104°09'0 0.4 29.8
2014-Jul-14 04:00N 13°48' W 104°09'0 0.0 29.9
2014-Jul-14 03:00N 13°48' W 104°09'2 0.4 29.9
2014-Jul-13 22:00N 13°46' W 104°09'0 0.4 30.3
2014-Jul-13 21:00N 13°46' W 104°09'0 0.1 30.3
2014-Jul-13 20:00N 13°46' W 104°10'1 0.5 30.3
2014-Jul-13 17:00N 13°46' W 104°08'2 2.0 29.7
2014-Jul-13 16:00N 13°46' W 104°10'0 0.0 29.7
2014-Jul-13 15:00N 13°46' W 104°10'1 0.4 29.6
2014-Jul-13 13:00N 13°46' W 104°10'2 0.5 29.6
2014-Jul-13 10:00N 13°46' W 104°11'0 0.0 29.7
2014-Jul-13 09:00N 13°46' W 104°11'0 0.0 29.7
2014-Jul-13 08:00N 13°46' W 104°11'0 0.1 29.7
2014-Jul-13 05:00N 13°46' W 104°11'0 0.2 29.7
2014-Jul-13 04:00N 13°46' W 104°11'   29.8

Dump ship's entire track history